Time;durP1;ratioP1;P1;durP2;ratioP2;P2;SDS_P1;SDS_P2;PMS_P1;PMS_P2;Temp;Humidity;BMP_temperature;BMP_pressure;BME280_temperature;BME280_humidity;BME280_pressure;Samples;Min_cycle;Max_cycle;Signal;HPM_P1;HPM_P2
2022/07/25 00:00:32;;;;;;;;;;;20.80;91.70;;;;;;5053624;28;19920;-73
2022/07/25 00:02:59;;;;;;;;;;;20.80;91.70;;;;;;5054464;28;19972;-73
2022/07/25 00:05:28;;;;;;;;;;;20.80;91.80;;;;;;5055495;28;19921;-73
2022/07/25 00:08:03;;;;;;;;;;;20.80;91.90;;;;;;5054066;28;19928;-73
2022/07/25 00:10:31;;;;;;;;;;;20.80;92.10;;;;;;5054867;28;19920;-73
2022/07/25 00:12:58;;;;;;;;;;;20.80;92.20;;;;;;5055000;28;20252;-73
2022/07/25 00:15:26;;;;;;;;;;;20.80;92.20;;;;;;5053933;28;19928;-73
2022/07/25 00:17:53;;;;;;;;;;;20.80;92.20;;;;;;5054174;28;19928;-73
2022/07/25 00:20:20;;;;;;;;;;;20.70;92.30;;;;;;5037873;28;19947;-73
2022/07/25 00:22:48;;;;;;;;;;;20.70;92.40;;;;;;5053614;28;19927;-73
2022/07/25 00:25:15;;;;;;;;;;;20.70;92.40;;;;;;5055328;28;19924;-73
2022/07/25 00:27:42;;;;;;;;;;;20.70;92.40;;;;;;5054052;28;19928;-73
2022/07/25 00:30:10;;;;;;;;;;;20.70;92.50;;;;;;5055036;28;19921;-73
2022/07/25 00:32:37;;;;;;;;;;;20.70;92.50;;;;;;5055009;28;19940;-73
2022/07/25 00:35:05;;;;;;;;;;;20.70;92.60;;;;;;5053587;28;20290;-72
2022/07/25 00:37:33;;;;;;;;;;;20.60;92.60;;;;;;5053779;28;19928;-73
2022/07/25 00:40:01;;;;;;;;;;;20.60;92.70;;;;;;5053843;28;19927;-73
2022/07/25 00:42:28;;;;;;;;;;;20.70;92.60;;;;;;5053673;28;20259;-73
2022/07/25 00:44:56;;;;;;;;;;;20.70;92.60;;;;;;5053916;28;19921;-73
2022/07/25 00:47:24;;;;;;;;;;;20.70;92.80;;;;;;5055135;28;20260;-73
2022/07/25 00:49:52;;;;;;;;;;;20.60;92.90;;;;;;5058663;28;19931;-72
2022/07/25 00:52:20;;;;;;;;;;;20.60;93.10;;;;;;5041209;28;19920;-73
2022/07/25 00:54:47;;;;;;;;;;;20.60;93.10;;;;;;5056401;28;19920;-73
2022/07/25 00:57:15;;;;;;;;;;;20.60;93.10;;;;;;5058749;28;19940;-73
2022/07/25 00:59:42;;;;;;;;;;;20.50;93.10;;;;;;5058449;28;19921;-73
2022/07/25 01:02:10;;;;;;;;;;;20.60;93.10;;;;;;5057266;28;19920;-72
2022/07/25 01:04:37;;;;;;;;;;;20.50;93.30;;;;;;5058186;28;19927;-73
2022/07/25 01:07:05;;;;;;;;;;;20.50;93.30;;;;;;5058188;28;20275;-73
2022/07/25 01:09:32;;;;;;;;;;;20.50;93.30;;;;;;5057345;28;20251;-73
2022/07/25 01:12:00;;;;;;;;;;;20.50;93.30;;;;;;5058267;28;19928;-73
2022/07/25 01:14:27;;;;;;;;;;;20.40;93.40;;;;;;5039687;28;19921;-73
2022/07/25 01:16:55;;;;;;;;;;;20.40;93.50;;;;;;5057975;28;19921;-73
2022/07/25 01:19:22;;;;;;;;;;;20.40;93.50;;;;;;5057951;28;20275;-73
2022/07/25 01:21:49;;;;;;;;;;;20.30;93.40;;;;;;5039572;28;19952;-73
2022/07/25 01:24:17;;;;;;;;;;;20.30;93.50;;;;;;5057151;28;19931;-73
2022/07/25 01:26:44;;;;;;;;;;;20.20;93.60;;;;;;5057173;28;20355;-73
2022/07/25 01:29:12;;;;;;;;;;;20.20;93.60;;;;;;5055829;28;20374;-73
2022/07/25 01:31:39;;;;;;;;;;;20.20;93.60;;;;;;5057660;28;19921;-73
2022/07/25 01:34:06;;;;;;;;;;;19.80;93.60;;;;;;5056525;28;19936;-72
2022/07/25 01:36:34;;;;;;;;;;;20.10;93.70;;;;;;5040222;28;19921;-73
2022/07/25 01:39:02;;;;;;;;;;;20.10;93.70;;;;;;5055371;28;19920;-73
2022/07/25 01:41:29;;;;;;;;;;;20.00;93.60;;;;;;5003120;28;19928;-73
2022/07/25 01:43:57;;;;;;;;;;;20.00;93.60;;;;;;5037630;28;19921;-73
2022/07/25 01:46:24;;;;;;;;;;;20.00;93.60;;;;;;5037702;28;20276;-73
2022/07/25 01:48:52;;;;;;;;;;;19.90;93.60;;;;;;5036335;28;19925;-73
2022/07/25 01:51:19;;;;;;;;;;;19.90;93.70;;;;;;5037552;28;19932;-73
2022/07/25 01:53:48;;;;;;;;;;;19.90;93.70;;;;;;5037874;28;19921;-73
2022/07/25 01:56:15;;;;;;;;;;;19.90;93.80;;;;;;5019908;28;20268;-73
2022/07/25 01:58:45;;;;;;;;;;;19.80;93.80;;;;;;5035902;28;20076;-73
2022/07/25 02:01:13;;;;;;;;;;;19.80;93.90;;;;;;5036218;28;19920;-73
2022/07/25 02:03:40;;;;;;;;;;;19.80;93.80;;;;;;5020316;28;20253;-73
2022/07/25 02:06:07;;;;;;;;;;;19.80;93.80;;;;;;5037376;28;19928;-73
2022/07/25 02:08:35;;;;;;;;;;;19.80;93.80;;;;;;5035988;28;19921;-73
2022/07/25 02:11:02;;;;;;;;;;;19.80;93.70;;;;;;5036969;28;19921;-72
2022/07/25 02:13:29;;;;;;;;;;;19.80;93.70;;;;;;5019584;28;19925;-73
2022/07/25 02:15:57;;;;;;;;;;;19.80;93.60;;;;;;5035795;28;19921;-72
2022/07/25 02:18:24;;;;;;;;;;;19.80;93.50;;;;;;5036946;28;19921;-73
2022/07/25 02:20:52;;;;;;;;;;;19.70;93.30;;;;;;5035917;28;20347;-73
2022/07/25 02:23:19;;;;;;;;;;;19.70;93.20;;;;;;5019810;28;20272;-72
2022/07/25 02:25:46;;;;;;;;;;;19.70;93.20;;;;;;5036702;28;19944;-73
2022/07/25 02:28:14;;;;;;;;;;;19.70;93.50;;;;;;5018519;28;19928;-73
2022/07/25 02:30:41;;;;;;;;;;;19.70;93.40;;;;;;5036769;28;19921;-73
2022/07/25 02:33:08;;;;;;;;;;;19.80;93.40;;;;;;5036645;28;20271;-73
2022/07/25 02:35:36;;;;;;;;;;;19.80;93.60;;;;;;5018417;28;19921;-73
2022/07/25 02:38:03;;;;;;;;;;;19.70;93.70;;;;;;5003015;28;19921;-73
2022/07/25 02:40:30;;;;;;;;;;;19.70;94.20;;;;;;5035187;28;19928;-72
2022/07/25 02:42:58;;;;;;;;;;;19.60;94.70;;;;;;5036858;28;20302;-73
2022/07/25 02:45:25;;;;;;;;;;;19.50;94.70;;;;;;5037020;28;20371;-73
2022/07/25 02:47:52;;;;;;;;;;;19.40;94.40;;;;;;5035280;28;19921;-73
2022/07/25 02:50:20;;;;;;;;;;;19.40;94.70;;;;;;5036255;28;20275;-73
2022/07/25 02:52:48;;;;;;;;;;;19.30;95.00;;;;;;5002635;28;19928;-73
2022/07/25 02:55:15;;;;;;;;;;;19.20;95.10;;;;;;5018051;28;19921;-73
2022/07/25 02:57:42;;;;;;;;;;;19.20;94.90;;;;;;5036179;28;19921;-73
2022/07/25 03:00:10;;;;;;;;;;;19.10;94.70;;;;;;5018873;28;20262;-73
2022/07/25 03:02:37;;;;;;;;;;;19.10;95.00;;;;;;5017812;28;19928;-72
2022/07/25 03:05:06;;;;;;;;;;;19.10;94.80;;;;;;5036104;28;19940;-73
2022/07/25 03:07:34;;;;;;;;;;;19.10;94.70;;;;;;5035069;28;19921;-73
2022/07/25 03:10:03;;;;;;;;;;;19.00;94.70;;;;;;5001880;28;19921;-73
2022/07/25 03:12:38;;;;;;;;;;;19.00;94.80;;;;;;5019027;28;19925;-73
2022/07/25 03:15:06;;;;;;;;;;;19.00;94.70;;;;;;5034810;28;19921;-73
2022/07/25 03:17:33;;;;;;;;;;;19.10;94.50;;;;;;5035937;28;19928;-73
2022/07/25 03:20:00;;;;;;;;;;;19.10;94.50;;;;;;5035764;28;19921;-73
2022/07/25 03:22:28;;;;;;;;;;;19.10;94.40;;;;;;5034661;28;19921;-73
2022/07/25 03:24:55;;;;;;;;;;;19.10;94.50;;;;;;5035807;28;19921;-73
2022/07/25 03:27:23;;;;;;;;;;;19.10;94.40;;;;;;5017318;28;19925;-73
2022/07/25 03:29:50;;;;;;;;;;;19.10;94.20;;;;;;5002190;28;19920;-73
2022/07/25 03:32:17;;;;;;;;;;;19.10;94.20;;;;;;5035588;28;19975;-72
2022/07/25 03:34:45;;;;;;;;;;;19.20;94.20;;;;;;5000888;28;19921;-73
2022/07/25 03:37:12;;;;;;;;;;;19.10;94.20;;;;;;5035830;28;19920;-72
2022/07/25 03:39:39;;;;;;;;;;;19.20;94.10;;;;;;5029287;28;19927;-73
2022/07/25 03:42:07;;;;;;;;;;;19.10;94.10;;;;;;5053529;28;19920;-73
2022/07/25 03:44:36;;;;;;;;;;;19.10;94.10;;;;;;5054727;28;19943;-73
2022/07/25 03:47:04;;;;;;;;;;;19.10;94.10;;;;;;5055211;28;20358;-73
2022/07/25 03:49:32;;;;;;;;;;;19.10;94.00;;;;;;5054164;28;19943;-73
2022/07/25 03:51:59;;;;;;;;;;;19.10;94.20;;;;;;5055275;28;19921;-73
2022/07/25 03:54:26;;;;;;;;;;;19.10;93.80;;;;;;5054136;28;19921;-73
2022/07/25 03:56:54;;;;;;;;;;;19.10;93.90;;;;;;5055033;28;20397;-73
2022/07/25 03:59:21;;;;;;;;;;;19.10;93.90;;;;;;5055031;28;19921;-73
2022/07/25 04:01:49;;;;;;;;;;;19.10;93.80;;;;;;5053105;28;20299;-73
2022/07/25 04:04:18;;;;;;;;;;;19.10;93.80;;;;;;5054308;28;20259;-73
2022/07/25 04:06:45;;;;;;;;;;;19.20;93.80;;;;;;5055295;28;19939;-73
2022/07/25 04:09:14;;;;;;;;;;;19.20;93.70;;;;;;5054031;28;19921;-73
2022/07/25 04:11:42;;;;;;;;;;;19.20;93.70;;;;;;5054894;28;19921;-73
2022/07/25 04:14:09;;;;;;;;;;;19.20;93.80;;;;;;5053808;28;20215;-73
2022/07/25 04:16:37;;;;;;;;;;;19.20;93.80;;;;;;5054783;28;19928;-73
2022/07/25 04:19:06;;;;;;;;;;;19.20;93.70;;;;;;5054470;28;19921;-72
2022/07/25 04:21:34;;;;;;;;;;;19.30;93.70;;;;;;5053117;28;19921;-73
2022/07/25 04:24:02;;;;;;;;;;;19.30;93.80;;;;;;5058229;28;19928;-73
2022/07/25 04:26:30;;;;;;;;;;;19.30;93.80;;;;;;5059091;28;19921;-73
2022/07/25 04:28:57;;;;;;;;;;;19.30;93.80;;;;;;5057951;28;20406;-73
2022/07/25 04:31:25;;;;;;;;;;;19.30;93.80;;;;;;5058449;28;19927;-73
2022/07/25 04:33:52;;;;;;;;;;;19.30;93.70;;;;;;5057304;28;19921;-72
2022/07/25 04:36:20;;;;;;;;;;;19.20;93.80;;;;;;5057802;28;19928;-73
2022/07/25 04:38:47;;;;;;;;;;;19.20;93.80;;;;;;5058643;28;20035;-72
2022/07/25 04:41:15;;;;;;;;;;;19.20;93.80;;;;;;5004121;28;19928;-73
2022/07/25 04:43:42;;;;;;;;;;;19.20;93.80;;;;;;5021863;28;19932;-73
2022/07/25 04:46:22;;;;;;;;;;;19.10;93.80;;;;;;5006145;28;19920;-73
2022/07/25 04:48:49;;;;;;;;;;;19.10;93.80;;;;;;5037626;28;19932;-73
2022/07/25 04:51:17;;;;;;;;;;;19.10;93.80;;;;;;5038766;28;19928;-72
2022/07/25 04:53:45;;;;;;;;;;;19.10;93.80;;;;;;5038734;28;19932;-73
2022/07/25 04:56:12;;;;;;;;;;;19.10;93.80;;;;;;5037122;28;19921;-72
2022/07/25 04:58:40;;;;;;;;;;;19.10;93.70;;;;;;5021027;28;19932;-73
2022/07/25 05:01:07;;;;;;;;;;;19.20;93.70;;;;;;5037300;28;19928;-73
2022/07/25 05:03:35;;;;;;;;;;;19.10;93.60;;;;;;5021116;28;19923;-73
2022/07/25 05:06:02;;;;;;;;;;;19.10;93.60;;;;;;5021070;28;19921;-72
2022/07/25 05:08:29;;;;;;;;;;;19.10;93.50;;;;;;5037145;28;19921;-73
2022/07/25 05:10:57;;;;;;;;;;;19.10;93.50;;;;;;5038189;28;19925;-73
2022/07/25 05:13:24;;;;;;;;;;;19.10;93.40;;;;;;5021081;28;19932;-73
2022/07/25 05:15:52;;;;;;;;;;;19.00;93.30;;;;;;5019697;28;19921;-73
2022/07/25 05:18:20;;;;;;;;;;;19.10;93.30;;;;;;5038249;28;19921;-73
2022/07/25 05:20:48;;;;;;;;;;;19.00;93.20;;;;;;5037111;28;20212;-73
2022/07/25 05:23:15;;;;;;;;;;;18.90;93.20;;;;;;5038621;28;19928;-73
2022/07/25 05:25:43;;;;;;;;;;;18.90;93.20;;;;;;5038558;28;19921;-73
2022/07/25 05:28:10;;;;;;;;;;;18.90;93.30;;;;;;5020041;28;19928;-73
2022/07/25 05:30:37;;;;;;;;;;;18.90;93.10;;;;;;5038016;28;19932;-73
2022/07/25 05:33:06;;;;;;;;;;;18.80;93.10;;;;;;5037609;28;19928;-73
2022/07/25 05:35:34;;;;;;;;;;;18.90;93.20;;;;;;5019149;28;19921;-73
2022/07/25 05:38:01;;;;;;;;;;;18.80;93.20;;;;;;5020379;28;19920;-73
2022/07/25 05:40:28;;;;;;;;;;;18.80;93.00;;;;;;5037411;28;19925;-73
2022/07/25 05:42:56;;;;;;;;;;;18.80;92.90;;;;;;5037586;28;19928;-73
2022/07/25 05:45:30;;;;;;;;;;;18.80;92.70;;;;;;5020569;28;19921;-72
2022/07/25 05:47:57;;;;;;;;;;;18.80;92.60;;;;;;5036467;28;19928;-73
2022/07/25 05:50:24;;;;;;;;;;;18.80;92.40;;;;;;5020087;28;19936;-72
2022/07/25 05:52:52;;;;;;;;;;;18.80;92.40;;;;;;5037289;28;19921;-72
2022/07/25 05:55:19;;;;;;;;;;;18.80;92.40;;;;;;5036277;28;19921;-73
2022/07/25 05:57:47;;;;;;;;;;;18.80;92.30;;;;;;5037442;28;19928;-72
2022/07/25 06:00:14;;;;;;;;;;;18.80;92.10;;;;;;5019969;28;19928;-72
2022/07/25 06:02:42;;;;;;;;;;;18.80;92.20;;;;;;5036165;28;20260;-73
2022/07/25 06:05:09;;;;;;;;;;;18.90;92.00;;;;;;5020151;28;19921;-72
2022/07/25 06:07:37;;;;;;;;;;;19.00;91.90;;;;;;5018693;28;19921;-72
2022/07/25 06:10:04;;;;;;;;;;;19.10;91.70;;;;;;5019926;28;19944;-73
2022/07/25 06:12:35;;;;;;;;;;;19.20;91.40;;;;;;5037243;28;20394;-73
2022/07/25 06:15:03;;;;;;;;;;;19.20;91.00;;;;;;5018720;28;19921;-75
2022/07/25 06:17:31;;;;;;;;;;;19.20;90.40;;;;;;5020192;28;19928;-72
2022/07/25 06:19:59;;;;;;;;;;;19.20;89.70;;;;;;5036987;28;19932;-72
2022/07/25 06:22:26;;;;;;;;;;;19.10;88.90;;;;;;5035773;28;20275;-73
2022/07/25 06:24:54;;;;;;;;;;;19.10;89.70;;;;;;5036822;28;19928;-73
2022/07/25 06:27:21;;;;;;;;;;;19.10;90.00;;;;;;5018442;28;19921;-73
2022/07/25 06:29:55;;;;;;;;;;;19.10;90.00;;;;;;5036741;28;20264;-73
2022/07/25 06:32:23;;;;;;;;;;;19.10;89.90;;;;;;5037012;28;20288;-73
2022/07/25 06:34:50;;;;;;;;;;;19.20;88.60;;;;;;5035825;28;20252;-72
2022/07/25 06:37:17;;;;;;;;;;;19.30;88.60;;;;;;5036662;28;19921;-73
2022/07/25 06:39:45;;;;;;;;;;;19.30;88.40;;;;;;5031964;28;19934;-73
2022/07/25 06:42:12;;;;;;;;;;;19.30;88.00;;;;;;5054425;28;19925;-73
2022/07/25 06:44:40;;;;;;;;;;;19.30;87.50;;;;;;5055645;28;19924;-73
2022/07/25 06:47:11;;;;;;;;;;;19.30;87.50;;;;;;5055643;28;19928;-73
2022/07/25 06:49:39;;;;;;;;;;;19.40;88.00;;;;;;5055039;28;19925;-71
2022/07/25 06:52:07;;;;;;;;;;;19.50;87.80;;;;;;5056135;28;19928;-73
2022/07/25 06:54:34;;;;;;;;;;;19.50;87.50;;;;;;5054779;28;19921;-72
2022/07/25 06:57:02;;;;;;;;;;;19.60;87.70;;;;;;5055840;28;20259;-72
2022/07/25 06:59:29;;;;;;;;;;;19.70;87.00;;;;;;5054949;28;19924;-73
2022/07/25 07:01:57;;;;;;;;;;;19.80;87.00;;;;;;5054738;28;19921;-72
2022/07/25 07:04:24;;;;;;;;;;;19.90;86.60;;;;;;5054673;28;19921;-72
2022/07/25 07:06:51;;;;;;;;;;;20.00;85.80;;;;;;5055797;28;19936;-73
2022/07/25 07:09:19;;;;;;;;;;;20.10;85.70;;;;;;5053731;28;19928;-72
2022/07/25 07:11:46;;;;;;;;;;;20.20;86.00;;;;;;5054736;28;19920;-73
2022/07/25 07:14:14;;;;;;;;;;;20.20;85.70;;;;;;5053659;28;20252;-72
2022/07/25 07:16:41;;;;;;;;;;;20.20;85.80;;;;;;5055646;28;20274;-73
2022/07/25 07:19:13;;;;;;;;;;;20.30;85.10;;;;;;5052223;28;19928;-73
2022/07/25 07:21:41;;;;;;;;;;;20.40;84.80;;;;;;5037308;28;20236;-73
2022/07/25 07:24:09;;;;;;;;;;;20.40;85.00;;;;;;5035145;28;19944;-73
2022/07/25 07:26:51;;;;;;;;;;;20.50;84.70;;;;;;5035926;28;19921;-73
2022/07/25 07:29:19;;;;;;;;;;;20.50;84.70;;;;;;5034909;28;19921;-73
2022/07/25 07:31:46;;;;;;;;;;;20.50;84.80;;;;;;5035811;28;19921;-73
2022/07/25 07:34:14;;;;;;;;;;;20.50;84.70;;;;;;5035293;28;19928;-73
2022/07/25 07:36:42;;;;;;;;;;;20.50;85.00;;;;;;5035438;28;20352;-72
2022/07/25 07:39:10;;;;;;;;;;;20.50;85.00;;;;;;5033988;28;19921;-73
2022/07/25 07:41:38;;;;;;;;;;;20.50;84.20;;;;;;5004828;28;19933;-73
2022/07/25 07:44:05;;;;;;;;;;;20.60;84.20;;;;;;5018374;28;19932;-73
2022/07/25 07:46:33;;;;;;;;;;;20.60;83.70;;;;;;5035325;28;19921;-73
2022/07/25 07:49:00;;;;;;;;;;;20.60;83.40;;;;;;5034380;28;20271;-73
2022/07/25 07:51:28;;;;;;;;;;;20.70;83.30;;;;;;5018936;28;19927;-73
2022/07/25 07:56:41;;;;;;;;;;;20.80;82.80;;;;;;5017991;28;19920;-72
2022/07/25 07:59:09;;;;;;;;;;;20.90;82.10;;;;;;5035074;28;19920;-73
2022/07/25 08:01:36;;;;;;;;;;;20.90;81.50;;;;;;5034043;28;19929;-73
2022/07/25 08:04:04;;;;;;;;;;;20.90;80.60;;;;;;5018284;28;19920;-72
2022/07/25 08:06:31;;;;;;;;;;;20.80;80.90;;;;;;5017698;28;19921;-73
2022/07/25 08:08:59;;;;;;;;;;;20.70;80.80;;;;;;5016825;28;19928;-72
2022/07/25 08:11:26;;;;;;;;;;;20.70;80.80;;;;;;5034532;28;19928;-72
2022/07/25 08:13:54;;;;;;;;;;;20.80;80.60;;;;;;5033832;28;20332;-72
2022/07/25 08:16:22;;;;;;;;;;;20.80;80.70;;;;;;5000181;28;19928;-72
2022/07/25 08:18:49;;;;;;;;;;;20.90;80.40;;;;;;5034776;28;19925;-73
2022/07/25 08:21:16;;;;;;;;;;;20.90;80.40;;;;;;5033902;28;19921;-72
2022/07/25 08:23:45;;;;;;;;;;;20.90;80.20;;;;;;5017760;28;19921;-72
2022/07/25 08:26:13;;;;;;;;;;;20.90;80.10;;;;;;5017681;28;19932;-72
2022/07/25 08:28:40;;;;;;;;;;;20.90;79.50;;;;;;5033914;28;19921;-72
2022/07/25 08:31:08;;;;;;;;;;;20.90;79.50;;;;;;5034776;28;20259;-73
2022/07/25 08:33:36;;;;;;;;;;;20.90;79.60;;;;;;5017690;28;19928;-72
2022/07/25 08:36:04;;;;;;;;;;;20.90;79.70;;;;;;5016352;28;19921;-72
2022/07/25 08:38:33;;;;;;;;;;;20.90;79.70;;;;;;5034730;28;20279;-72
2022/07/25 08:41:01;;;;;;;;;;;21.00;80.00;;;;;;5033591;28;19925;-72
2022/07/25 08:43:31;;;;;;;;;;;21.00;80.30;;;;;;5034768;28;20264;-72
2022/07/25 08:45:59;;;;;;;;;;;21.10;80.70;;;;;;5017400;28;19921;-72
2022/07/25 08:48:28;;;;;;;;;;;21.30;80.00;;;;;;5033492;28;19921;-73
2022/07/25 08:50:56;;;;;;;;;;;21.40;79.50;;;;;;5034846;28;19921;-72
2022/07/25 08:53:24;;;;;;;;;;;19.90;78.10;;;;;;5034827;28;20294;-72
2022/07/25 08:56:05;;;;;;;;;;;21.50;78.90;;;;;;5033517;28;19932;-72
2022/07/25 08:58:48;;;;;;;;;;;21.50;78.40;;;;;;5034732;28;19983;-72
2022/07/25 09:01:15;;;;;;;;;;;21.40;77.90;;;;;;5032890;28;20303;-73
2022/07/25 09:03:43;;;;;;;;;;;21.40;77.90;;;;;;5034059;28;19921;-72
2022/07/25 09:06:13;;;;;;;;;;;21.40;77.50;;;;;;5034222;28;19925;-72
2022/07/25 09:08:51;;;;;;;;;;;21.40;77.50;;;;;;5035021;28;20347;-72
2022/07/25 09:11:26;;;;;;;;;;;21.40;78.00;;;;;;5038017;28;19928;-72
2022/07/25 09:14:01;;;;;;;;;;;21.40;77.70;;;;;;5036934;28;20370;-72
2022/07/25 09:16:29;;;;;;;;;;;21.50;77.40;;;;;;5004343;28;19928;-72
2022/07/25 09:19:06;;;;;;;;;;;21.20;76.90;;;;;;5004210;28;19920;-73
2022/07/25 09:21:34;;;;;;;;;;;21.50;76.90;;;;;;5019506;28;19921;-72
2022/07/25 09:24:12;;;;;;;;;;;21.50;77.40;;;;;;5020415;28;19922;-72
2022/07/25 09:26:48;;;;;;;;;;;21.40;77.70;;;;;;5020306;28;19936;-72
2022/07/25 09:29:17;;;;;;;;;;;21.30;77.40;;;;;;4986769;28;19921;-73
2022/07/25 09:31:44;;;;;;;;;;;21.30;77.80;;;;;;5037321;28;19928;-72
2022/07/25 09:34:15;;;;;;;;;;;21.20;77.70;;;;;;5019081;28;20283;-72
2022/07/25 09:36:53;;;;;;;;;;;21.30;77.40;;;;;;5037456;28;20027;-73
2022/07/25 09:39:20;;;;;;;;;;;21.30;77.50;;;;;;5019908;28;19935;-72
2022/07/25 09:41:48;;;;;;;;;;;21.30;77.80;;;;;;5019181;28;19924;-72
2022/07/25 09:44:23;;;;;;;;;;;21.30;77.70;;;;;;5020154;28;19921;-72
2022/07/25 09:46:50;;;;;;;;;;;21.20;77.80;;;;;;5037098;28;19924;-73
2022/07/25 09:49:20;;;;;;;;;;;21.10;78.10;;;;;;5036256;28;19925;-72
2022/07/25 09:51:49;;;;;;;;;;;21.00;78.20;;;;;;5019841;28;19932;-72
2022/07/25 09:54:16;;;;;;;;;;;21.00;78.20;;;;;;5036132;28;19921;-73
2022/07/25 09:56:44;;;;;;;;;;;21.10;78.30;;;;;;5003607;28;19931;-73
2022/07/25 09:59:11;;;;;;;;;;;21.30;78.10;;;;;;5028409;28;19928;-73
2022/07/25 10:01:44;;;;;;;;;;;21.50;77.40;;;;;;4999201;28;19932;-73
2022/07/25 10:04:20;;;;;;;;;;;21.70;76.80;;;;;;4999949;28;19929;-73
2022/07/25 10:07:02;;;;;;;;;;;21.70;76.40;;;;;;5017820;28;19928;-73
2022/07/25 10:09:30;;;;;;;;;;;21.70;76.60;;;;;;4999112;28;19929;-72
2022/07/25 10:12:05;;;;;;;;;;;21.60;76.80;;;;;;5001109;28;19932;-72
2022/07/25 10:14:33;;;;;;;;;;;21.60;77.00;;;;;;4998936;28;19993;-72
2022/07/25 10:17:01;;;;;;;;;;;21.60;77.10;;;;;;4999978;28;19921;-73
2022/07/25 10:19:54;;;;;;;;;;;21.70;77.00;;;;;;4999124;28;19929;-73
2022/07/25 10:22:41;;;;;;;;;;;21.70;76.70;;;;;;5014513;28;19940;-73
2022/07/25 10:25:25;;;;;;;;;;;21.70;76.60;;;;;;5017444;28;19921;-73
2022/07/25 10:28:01;;;;;;;;;;;21.80;76.10;;;;;;5015909;28;19922;-73
2022/07/25 10:30:36;;;;;;;;;;;21.80;76.30;;;;;;5000283;28;19929;-73
2022/07/25 10:33:10;;;;;;;;;;;21.90;77.00;;;;;;5000139;28;19928;-73
2022/07/25 10:35:38;;;;;;;;;;;22.00;76.40;;;;;;4998808;28;19921;-73
2022/07/25 10:38:05;;;;;;;;;;;22.00;75.60;;;;;;4999669;28;19922;-73
2022/07/25 10:40:35;;;;;;;;;;;22.10;74.70;;;;;;4998564;28;19922;-72
2022/07/25 10:43:06;;;;;;;;;;;22.20;74.10;;;;;;5016956;28;19929;-73
2022/07/25 10:45:40;;;;;;;;;;;22.20;73.70;;;;;;4999757;28;19940;-73
2022/07/25 10:48:08;;;;;;;;;;;22.20;73.30;;;;;;5015622;28;19921;-73
2022/07/25 10:50:46;;;;;;;;;;;22.30;73.80;;;;;;5017033;28;19927;-73
2022/07/25 10:53:46;;;;;;;;;;;22.20;73.80;;;;;;4999592;28;19921;-72
2022/07/25 10:56:15;;;;;;;;;;;22.30;73.70;;;;;;5015560;28;19940;-73
2022/07/25 10:58:47;;;;;;;;;;;22.50;73.40;;;;;;5016265;28;19921;-73
2022/07/25 11:01:25;;;;;;;;;;;22.60;73.50;;;;;;4998665;28;19928;-73
2022/07/25 11:03:54;;;;;;;;;;;22.70;73.30;;;;;;5016522;28;19921;-72
2022/07/25 11:06:28;;;;;;;;;;;22.90;73.30;;;;;;4999208;28;19925;-73
2022/07/25 11:08:59;;;;;;;;;;;23.00;72.80;;;;;;4997999;28;20352;-73
2022/07/25 11:11:33;;;;;;;;;;;23.20;72.60;;;;;;5016282;28;20332;-73
2022/07/25 11:14:01;;;;;;;;;;;23.30;72.40;;;;;;4998238;28;20403;-72
2022/07/25 11:16:28;;;;;;;;;;;23.50;72.00;;;;;;5016285;28;19921;-73
2022/07/25 11:18:56;;;;;;;;;;;23.60;72.10;;;;;;4998785;28;19922;-73
2022/07/25 11:21:23;;;;;;;;;;;23.80;70.40;;;;;;5014866;28;20272;-73
2022/07/25 11:23:51;;;;;;;;;;;23.80;70.40;;;;;;5016054;28;19926;-73
2022/07/25 11:26:18;;;;;;;;;;;23.90;70.60;;;;;;4998835;28;19922;-73
2022/07/25 11:28:49;;;;;;;;;;;23.90;69.80;;;;;;5014207;28;20312;-73
2022/07/25 11:31:17;;;;;;;;;;;23.80;70.90;;;;;;5015428;28;20272;-70
2022/07/25 11:33:45;;;;;;;;;;;23.60;70.90;;;;;;4998429;28;19921;-71
2022/07/25 11:36:13;;;;;;;;;;;23.50;71.10;;;;;;5014540;28;20333;-71
2022/07/25 11:38:41;;;;;;;;;;;23.50;71.60;;;;;;5015567;28;19925;-72
2022/07/25 11:41:09;;;;;;;;;;;23.50;71.40;;;;;;5014305;28;19948;-73
2022/07/25 11:43:36;;;;;;;;;;;23.30;71.90;;;;;;5015198;28;19932;-73
2022/07/25 11:46:05;;;;;;;;;;;23.40;71.60;;;;;;5015348;28;19936;-72
2022/07/25 11:48:38;;;;;;;;;;;23.30;71.80;;;;;;5014184;28;19929;-73
2022/07/25 11:51:13;;;;;;;;;;;23.00;72.90;;;;;;5015302;28;19936;-72
2022/07/25 11:53:48;;;;;;;;;;;22.80;73.90;;;;;;4982602;28;20292;-73
2022/07/25 11:56:18;;;;;;;;;;;22.60;74.30;;;;;;5014343;28;19936;-73
2022/07/25 11:59:05;;;;;;;;;;;22.40;74.60;;;;;;5014923;28;19921;-72
2022/07/25 12:01:36;;;;;;;;;;;22.20;78.80;;;;;;5014081;28;19929;-73
2022/07/25 12:04:14;;;;;;;;;;;21.90;78.60;;;;;;4998174;28;20356;-73
2022/07/25 12:06:43;;;;;;;;;;;21.80;79.10;;;;;;5015419;28;20391;-72
2022/07/25 12:09:15;;;;;;;;;;;21.80;79.20;;;;;;5013988;28;19921;-73
2022/07/25 12:11:46;;;;;;;;;;;22.10;79.20;;;;;;4998002;28;19921;-73
2022/07/25 12:14:14;;;;;;;;;;;22.10;79.20;;;;;;5014085;28;19932;-73
2022/07/25 12:16:41;;;;;;;;;;;22.10;79.80;;;;;;5015107;28;20356;-72
2022/07/25 12:19:16;;;;;;;;;;;22.10;79.30;;;;;;5015025;28;19922;-73
2022/07/25 12:21:44;;;;;;;;;;;22.20;78.90;;;;;;5013982;28;19921;-73
2022/07/25 12:24:12;;;;;;;;;;;22.40;80.70;;;;;;5014983;28;20399;-73
2022/07/25 12:26:39;;;;;;;;;;;22.40;80.80;;;;;;5014694;28;20260;-73
2022/07/25 12:29:07;;;;;;;;;;;22.30;79.20;;;;;;4996796;28;19921;-74
2022/07/25 12:31:35;;;;;;;;;;;22.20;78.80;;;;;;4997700;28;19930;-73
2022/07/25 12:34:02;;;;;;;;;;;22.10;78.50;;;;;;5013761;28;19921;-71
2022/07/25 12:36:30;;;;;;;;;;;22.20;78.70;;;;;;4997458;28;19921;-72
2022/07/25 12:38:57;;;;;;;;;;;22.30;77.80;;;;;;5014837;28;20348;-73
2022/07/25 12:41:25;;;;;;;;;;;22.60;78.10;;;;;;5031674;28;19947;-73
2022/07/25 12:43:52;;;;;;;;;;;22.70;76.90;;;;;;5036636;28;19936;-74
2022/07/25 12:46:19;;;;;;;;;;;22.80;75.90;;;;;;5038402;28;19943;-73
2022/07/25 12:48:48;;;;;;;;;;;22.80;75.30;;;;;;5057318;28;19928;-71
2022/07/25 12:51:16;;;;;;;;;;;22.60;75.60;;;;;;5057584;28;19921;-73
2022/07/25 12:53:43;;;;;;;;;;;22.50;75.20;;;;;;5041025;28;19932;-72
2022/07/25 12:56:11;;;;;;;;;;;22.40;78.20;;;;;;5057220;28;19920;-76
2022/07/25 12:58:38;;;;;;;;;;;22.20;79.60;;;;;;5029432;28;19932;-75
2022/07/25 13:01:06;;;;;;;;;;;21.90;81.70;;;;;;5054150;28;19920;-73
2022/07/25 13:03:34;;;;;;;;;;;21.60;82.20;;;;;;5078080;28;19935;-74
2022/07/25 13:06:01;;;;;;;;;;;21.50;82.40;;;;;;5057747;28;19924;-73
2022/07/25 13:08:29;;;;;;;;;;;21.30;83.10;;;;;;5037478;28;19936;-75
2022/07/25 13:10:56;;;;;;;;;;;21.40;82.80;;;;;;5047416;28;20256;-75
2022/07/25 13:13:24;;;;;;;;;;;21.70;81.40;;;;;;5057918;28;19920;-76
2022/07/25 13:15:53;;;;;;;;;;;22.00;78.50;;;;;;5037923;28;19925;-73
2022/07/25 13:18:20;;;;;;;;;;;22.10;78.50;;;;;;5037411;28;19921;-73
2022/07/25 13:20:48;;;;;;;;;;;22.30;78.60;;;;;;5037648;28;19921;-71
2022/07/25 13:23:15;;;;;;;;;;;22.40;78.20;;;;;;5037065;28;20347;-71
2022/07/25 13:25:47;;;;;;;;;;;22.50;76.50;;;;;;5037964;28;19921;-72
2022/07/25 13:28:15;;;;;;;;;;;22.60;75.70;;;;;;5036549;28;19921;-72
2022/07/25 13:30:43;;;;;;;;;;;22.70;74.60;;;;;;5037956;28;19925;-72
2022/07/25 13:33:10;;;;;;;;;;;22.80;75.10;;;;;;5037823;28;19924;-72
2022/07/25 13:35:38;;;;;;;;;;;22.90;75.50;;;;;;5052819;28;19928;-72
2022/07/25 13:38:07;;;;;;;;;;;23.10;74.60;;;;;;5038679;28;19928;-72
2022/07/25 13:40:39;;;;;;;;;;;23.20;72.40;;;;;;5023920;28;20269;-72
2022/07/25 13:43:11;;;;;;;;;;;23.20;71.70;;;;;;5017906;28;19928;-72
2022/07/25 13:45:39;;;;;;;;;;;23.30;71.80;;;;;;5001148;28;19921;-72
2022/07/25 13:48:07;;;;;;;;;;;23.50;71.60;;;;;;5016923;28;19922;-71
2022/07/25 13:50:55;;;;;;;;;;;23.60;70.20;;;;;;5000556;28;19921;-73
2022/07/25 13:53:22;;;;;;;;;;;23.80;69.50;;;;;;5035638;28;20394;-73
2022/07/25 13:55:57;;;;;;;;;;;23.90;68.60;;;;;;5035245;28;20279;-73
2022/07/25 13:58:24;;;;;;;;;;;24.00;69.40;;;;;;5020635;28;20360;-73
2022/07/25 14:00:52;;;;;;;;;;;24.20;69.90;;;;;;5036136;28;19928;-73
2022/07/25 14:03:19;;;;;;;;;;;24.40;69.90;;;;;;5037361;28;19932;-72
2022/07/25 14:05:47;;;;;;;;;;;24.60;68.50;;;;;;5037444;28;19928;-73
2022/07/25 14:08:14;;;;;;;;;;;24.80;68.00;;;;;;5036344;28;20353;-73
2022/07/25 14:10:42;;;;;;;;;;;24.80;67.70;;;;;;5019478;28;19948;-73
2022/07/25 14:13:11;;;;;;;;;;;24.90;67.50;;;;;;5037598;28;19921;-72
2022/07/25 14:15:39;;;;;;;;;;;25.00;67.00;;;;;;5036219;28;19928;-73
2022/07/25 14:18:07;;;;;;;;;;;25.00;67.10;;;;;;5036938;28;19941;-73
2022/07/25 14:20:34;;;;;;;;;;;25.20;66.70;;;;;;5035696;28;20363;-72
2022/07/25 14:23:02;;;;;;;;;;;25.30;66.40;;;;;;5036908;28;19921;-73
2022/07/25 14:25:29;;;;;;;;;;;25.40;66.00;;;;;;5003018;28;19932;-73
2022/07/25 14:27:58;;;;;;;;;;;25.50;66.10;;;;;;5035955;28;20287;-73